Time;durP1;ratioP1;P1;durP2;ratioP2;P2;SDS_P1;SDS_P2;PMS_P1;PMS_P2;Temp;Humidity;BMP_temperature;BMP_pressure;BME280_temperature;BME280_humidity;BME280_pressure;Samples;Min_cycle;Max_cycle;Signal;HPM_P1;HPM_P2
2023/05/31 00:00:45;;;;;;;5.22;1.50;;;12.50;1.00;;;;;;20867776;28;20044;-41
2023/05/31 00:10:46;;;;;;;4.95;1.40;;;12.50;1.00;;;;;;20865125;28;20052;-41
2023/05/31 00:20:47;;;;;;;3.45;1.63;;;12.40;1.00;;;;;;20886268;28;20036;-41
2023/05/31 00:30:48;;;;;;;4.95;1.67;;;12.20;1.00;;;;;;20885971;28;20489;-41
2023/05/31 00:40:49;;;;;;;3.30;1.50;;;12.30;1.00;;;;;;20883345;28;20079;-41
2023/05/31 00:50:50;;;;;;;5.63;1.90;;;12.20;1.00;;;;;;20873927;28;20487;-41
2023/05/31 01:00:52;;;;;;;5.50;2.10;;;12.10;1.00;;;;;;20888008;28;20043;-41
2023/05/31 01:10:57;;;;;;;3.63;1.85;;;12.00;1.00;;;;;;20867669;28;20052;-41
2023/05/31 01:21:03;;;;;;;3.47;1.73;;;11.90;1.00;;;;;;20879634;28;20148;-41
2023/05/31 01:31:08;;;;;;;5.25;2.05;;;11.90;1.00;;;;;;20879852;28;20041;-41
2023/05/31 01:41:12;;;;;;;4.18;1.90;;;11.80;1.00;;;;;;20873168;28;20443;-41
2023/05/31 01:51:14;;;;;;;5.88;1.88;;;11.80;1.00;;;;;;20878371;28;20560;-41
2023/05/31 02:01:17;;;;;;;3.97;1.88;;;11.60;1.00;;;;;;20871628;28;20037;-41
2023/05/31 02:11:18;;;;;;;3.80;1.67;;;11.60;1.00;;;;;;20866471;28;20051;-41
2023/05/31 02:21:19;;;;;;;3.42;1.90;;;11.60;1.00;;;;;;20863742;28;22417;-41
2023/05/31 02:31:21;;;;;;;4.18;2.20;;;11.50;1.00;;;;;;20870873;28;20055;-41
2023/05/31 02:41:22;;;;;;;6.15;2.15;;;11.40;1.00;;;;;;20868339;28;20033;-41
2023/05/31 02:51:23;;;;;;;4.50;2.05;;;11.40;1.00;;;;;;20873720;28;20036;-41
2023/05/31 03:01:24;;;;;;;4.43;2.20;;;11.20;1.00;;;;;;20873762;28;20043;-41
2023/05/31 03:11:26;;;;;;;5.40;1.75;;;11.10;1.00;;;;;;20873070;28;20103;-41
2023/05/31 03:21:27;;;;;;;3.90;2.00;;;11.00;1.00;;;;;;20868767;28;20048;-41
2023/05/31 03:31:30;;;;;;;5.15;2.15;;;11.00;1.00;;;;;;20874499;28;20047;-41
2023/05/31 03:41:32;;;;;;;5.50;2.42;;;10.90;1.00;;;;;;20877487;28;20043;-41
2023/05/31 03:51:33;;;;;;;3.80;2.15;;;10.90;1.00;;;;;;20869779;28;20041;-41
2023/05/31 04:01:34;;;;;;;6.10;2.47;;;10.90;2.70;;;;;;20873116;28;20511;-41
2023/05/31 04:11:35;;;;;;;4.57;2.28;;;10.90;5.70;;;;;;20854433;28;20056;-41
2023/05/31 04:21:36;;;;;;;8.38;2.50;;;11.00;10.80;;;;;;20870852;28;20045;-41
2023/05/31 04:31:37;;;;;;;8.68;2.67;;;11.10;3.60;;;;;;20869855;28;20037;-42
2023/05/31 04:41:38;;;;;;;6.88;2.75;;;11.20;7.30;;;;;;20872182;28;20032;-42
2023/05/31 04:51:40;;;;;;;5.18;2.58;;;11.20;7.60;;;;;;20867727;28;20079;-42
2023/05/31 05:01:41;;;;;;;5.88;2.40;;;11.30;11.70;;;;;;20869584;28;20048;-42
2023/05/31 05:11:42;;;;;;;8.20;3.50;;;11.60;6.80;;;;;;20876395;28;20050;-41
2023/05/31 05:21:43;;;;;;;8.38;3.60;;;11.80;5.40;;;;;;20871604;28;20338;-41
2023/05/31 05:31:44;;;;;;;8.27;2.88;;;12.10;1.00;;;;;;20874990;28;20041;-41
2023/05/31 05:41:45;;;;;;;9.07;3.10;;;12.50;1.00;;;;;;20867151;28;20041;-41
2023/05/31 05:51:46;;;;;;;7.35;3.63;;;12.80;1.00;;;;;;20878462;28;20505;-41
2023/05/31 06:01:47;;;;;;;7.65;3.28;;;13.20;1.00;;;;;;20895387;28;20040;-41
2023/05/31 06:11:48;;;;;;;6.68;2.95;;;13.40;1.00;;;;;;20893753;28;20071;-40
2023/05/31 06:21:50;;;;;;;6.32;3.08;;;13.80;1.00;;;;;;20895494;28;20115;-41
2023/05/31 06:31:51;;;;;;;9.63;3.33;;;14.10;1.00;;;;;;20895773;28;20044;-41
2023/05/31 06:41:52;;;;;;;7.93;3.35;;;14.40;1.00;;;;;;20894804;28;20076;-41
2023/05/31 06:51:53;;;;;;;9.02;3.92;;;14.70;1.00;;;;;;20896716;28;20492;-41
2023/05/31 07:01:54;;;;;;;5.85;2.95;;;15.00;1.00;;;;;;20901803;28;20056;-41
2023/05/31 07:11:55;;;;;;;7.30;2.72;;;15.20;1.00;;;;;;20902387;28;20040;-41
2023/05/31 07:21:56;;;;;;;5.70;2.78;;;15.50;1.00;;;;;;20894012;28;20041;-41
2023/05/31 07:31:57;;;;;;;5.63;2.65;;;15.60;1.00;;;;;;20903681;28;20040;-41
2023/05/31 07:41:58;;;;;;;9.05;3.83;;;15.60;1.00;;;;;;20901587;28;20045;-41
2023/05/31 07:51:59;;;;;;;9.05;2.65;;;15.70;1.00;;;;;;20905931;28;20045;-42
2023/05/31 08:02:00;;;;;;;5.25;2.63;;;15.90;1.00;;;;;;20902510;28;20040;-41
2023/05/31 08:12:06;;;;;;;6.70;2.67;;;16.00;1.00;;;;;;20886158;28;20158;-41
2023/05/31 08:22:07;;;;;;;7.30;2.20;;;16.30;1.00;;;;;;20885732;28;20037;-41
2023/05/31 08:32:09;;;;;;;6.40;2.50;;;16.50;1.00;;;;;;20893056;28;20508;-41
2023/05/31 08:42:18;;;;;;;8.48;3.30;;;16.90;1.00;;;;;;20904758;28;20036;-41
2023/05/31 08:52:20;;;;;;;6.80;2.53;;;17.30;1.00;;;;;;20918240;28;20047;-41
2023/05/31 09:02:23;;;;;;;4.07;2.03;;;17.60;1.00;;;;;;20909036;28;20344;-39
2023/05/31 09:12:24;;;;;;;6.20;2.28;;;18.00;1.00;;;;;;20907604;28;20045;-39
2023/05/31 09:22:26;;;;;;;6.57;2.13;;;18.40;1.00;;;;;;20891608;28;20033;-39
2023/05/31 09:32:27;;;;;;;6.82;2.25;;;18.70;1.00;;;;;;20890389;28;20037;-39
2023/05/31 09:42:29;;;;;;;8.77;2.40;;;19.10;1.00;;;;;;20890393;28;20362;-39
2023/05/31 09:52:30;;;;;;;7.32;2.70;;;19.40;1.00;;;;;;20891197;28;20102;-39
2023/05/31 10:02:31;;;;;;;4.93;2.10;;;19.50;1.00;;;;;;20887598;28;20444;-39
2023/05/31 10:12:51;;;;;;;5.82;2.80;;;19.60;1.00;;;;;;20893547;28;20056;-40
2023/05/31 10:22:57;;;;;;;4.85;2.47;;;19.80;1.00;;;;;;20907505;28;20254;-40
2023/05/31 10:33:05;;;;;;;7.13;3.20;;;20.10;1.00;;;;;;20904716;28;20044;-40
2023/05/31 10:43:06;;;;;;;8.00;3.85;;;20.00;1.00;;;;;;20902824;28;20036;-40
2023/05/31 10:53:11;;;;;;;6.88;3.25;;;20.10;1.00;;;;;;20900169;28;20037;-39
2023/05/31 11:03:21;;;;;;;6.72;3.35;;;20.20;1.00;;;;;;20893164;28;20333;-40
2023/05/31 11:14:11;;;;;;;9.07;3.38;;;20.20;1.00;;;;;;20904594;28;20562;-39
2023/05/31 11:24:28;;;;;;;8.52;3.65;;;20.50;1.00;;;;;;20891479;28;21456;-39
2023/05/31 11:34:33;;;;;;;5.73;3.37;;;20.80;1.00;;;;;;20900573;28;20357;-39
2023/05/31 11:44:40;;;;;;;9.52;3.97;;;21.30;1.00;;;;;;20913679;28;20051;-40
2023/05/31 11:54:44;;;;;;;7.10;2.80;;;21.10;1.00;;;;;;20892666;28;20049;-40
2023/05/31 12:04:45;;;;;;;7.18;2.90;;;21.40;1.00;;;;;;20901149;28;20043;-39
2023/05/31 12:14:54;;;;;;;9.45;4.13;;;21.50;1.00;;;;;;20901003;28;20500;-40
2023/05/31 12:24:56;;;;;;;10.07;3.78;;;21.80;1.00;;;;;;20895788;28;20048;-40
2023/05/31 12:35:09;;;;;;;8.77;4.40;;;21.70;1.00;;;;;;20884310;28;20045;-40
2023/05/31 12:45:10;;;;;;;6.15;3.15;;;22.10;1.00;;;;;;20876259;28;20491;-40
2023/05/31 12:55:11;;;;;;;6.55;2.63;;;22.10;1.00;;;;;;20869068;28;20384;-40
2023/05/31 13:05:12;;;;;;;8.95;3.00;;;22.20;1.00;;;;;;20883168;28;20053;-40
2023/05/31 13:15:14;;;;;;;6.60;3.45;;;22.10;1.00;;;;;;20876642;28;20286;-40
2023/05/31 13:25:15;;;;;;;4.35;2.53;;;22.10;1.00;;;;;;20897611;28;20056;-40
2023/05/31 13:35:16;;;;;;;11.80;3.65;;;21.90;1.00;;;;;;20922373;28;20569;-40
2023/05/31 13:45:17;;;;;;;6.30;2.72;;;21.80;1.00;;;;;;20910307;28;20029;-40
2023/05/31 13:55:18;;;;;;;5.30;2.88;;;21.80;1.00;;;;;;20917836;28;20045;-40
2023/05/31 14:05:19;;;;;;;4.95;2.95;;;21.70;1.00;;;;;;20910088;28;20171;-40
2023/05/31 14:15:21;;;;;;;5.82;3.38;;;21.70;1.00;;;;;;20911032;28;20056;-40
2023/05/31 14:25:22;;;;;;;5.82;3.05;;;21.50;1.00;;;;;;20895264;28;20374;-40
2023/05/31 14:35:23;;;;;;;7.97;2.65;;;21.20;1.00;;;;;;20887891;28;20540;-40
2023/05/31 14:45:24;;;;;;;9.15;3.17;;;21.10;1.00;;;;;;20897452;28;20049;-40
2023/05/31 14:55:25;;;;;;;7.07;3.20;;;21.30;1.00;;;;;;20877965;28;20052;-40
2023/05/31 15:05:26;;;;;;;7.45;2.80;;;21.20;1.00;;;;;;20886235;28;20036;-40
2023/05/31 15:15:27;;;;;;;8.05;3.55;;;20.70;1.00;;;;;;20893128;28;20043;-40
2023/05/31 15:25:28;;;;;;;8.05;3.60;;;20.70;1.00;;;;;;20898946;28;20507;-40
2023/05/31 15:35:33;;;;;;;6.75;3.20;;;20.50;1.00;;;;;;20898680;28;20098;-40
2023/05/31 15:45:34;;;;;;;7.38;3.13;;;20.50;1.00;;;;;;20894496;28;20526;-40
2023/05/31 15:55:36;;;;;;;6.65;3.20;;;20.60;1.00;;;;;;20891754;28;20044;-40
2023/05/31 16:05:37;;;;;;;7.40;3.40;;;20.20;1.00;;;;;;20875600;28;20516;-40
2023/05/31 16:15:38;;;;;;;7.60;3.30;;;20.20;1.00;;;;;;20875074;28;20380;-40
2023/05/31 16:25:39;;;;;;;7.45;3.67;;;19.90;1.00;;;;;;20885513;28;20037;-40
2023/05/31 16:35:40;;;;;;;7.95;3.33;;;19.80;1.00;;;;;;20887674;28;20411;-40
2023/05/31 16:45:41;;;;;;;7.03;3.58;;;19.80;1.00;;;;;;20881255;28;20037;-39
2023/05/31 16:55:42;;;;;;;6.57;3.05;;;19.50;1.00;;;;;;20887404;28;20045;-41
2023/05/31 17:05:43;;;;;;;8.85;2.80;;;19.40;1.00;;;;;;20893801;28;20103;-40
2023/05/31 17:15:45;;;;;;;9.40;4.10;;;19.10;1.00;;;;;;20883149;28;20044;-40
2023/05/31 17:25:46;;;;;;;7.53;3.75;;;18.90;1.00;;;;;;20891056;28;20044;-39
2023/05/31 17:35:47;;;;;;;6.95;3.50;;;18.70;1.00;;;;;;20877486;28;20044;-39
2023/05/31 17:45:49;;;;;;;8.60;3.15;;;18.40;1.00;;;;;;20878122;28;20037;-39
2023/05/31 17:55:50;;;;;;;6.20;2.47;;;18.10;1.00;;;;;;20873584;28;20044;-39
2023/05/31 18:05:51;;;;;;;4.75;2.20;;;17.90;1.00;;;;;;20875014;28;20503;-40
2023/05/31 18:15:52;;;;;;;5.72;2.95;;;17.80;1.00;;;;;;20878148;28;20495;-40
2023/05/31 18:25:54;;;;;;;7.07;3.03;;;17.50;1.00;;;;;;20878543;28;20105;-40
2023/05/31 18:35:55;;;;;;;7.35;3.10;;;17.30;1.00;;;;;;20868937;28;20202;-41
2023/05/31 18:45:57;;;;;;;8.25;3.10;;;17.10;1.00;;;;;;20873652;28;20040;-40
2023/05/31 18:55:59;;;;;;;6.28;3.05;;;16.90;1.00;;;;;;20884655;28;20048;-40
2023/05/31 19:06:00;;;;;;;5.22;3.58;;;16.60;1.00;;;;;;20883164;28;20302;-40
2023/05/31 19:16:01;;;;;;;6.32;3.70;;;16.20;1.00;;;;;;20884625;28;20878;-40
2023/05/31 19:26:02;;;;;;;7.63;3.63;;;16.00;1.00;;;;;;20882541;28;20049;-40
2023/05/31 19:36:03;;;;;;;9.75;4.88;;;15.80;1.00;;;;;;20879918;28;20071;-40
2023/05/31 19:46:16;;;;;;;8.43;3.55;;;15.70;1.00;;;;;;20878880;28;20036;-40
2023/05/31 19:56:17;;;;;;;12.88;4.00;;;15.50;1.00;;;;;;20877424;28;20403;-40
2023/05/31 20:06:18;;;;;;;8.13;3.78;;;15.30;1.00;;;;;;20876814;28;22410;-40
2023/05/31 20:16:19;;;;;;;8.23;3.55;;;15.10;1.00;;;;;;20874676;28;20033;-40
2023/05/31 20:26:22;;;;;;;6.65;3.08;;;14.90;1.00;;;;;;20875506;28;20040;-40
2023/05/31 20:36:23;;;;;;;8.15;2.90;;;14.70;1.00;;;;;;20896306;28;20036;-39
2023/05/31 20:46:24;;;;;;;7.75;3.17;;;14.70;1.00;;;;;;20909851;28;21581;-42
2023/05/31 20:56:26;;;;;;;9.18;3.10;;;14.40;1.00;;;;;;20911874;28;20503;-42
2023/05/31 21:06:27;;;;;;;11.43;4.28;;;14.30;1.00;;;;;;20904474;28;20041;-39
2023/05/31 21:16:28;;;;;;;9.52;3.15;;;14.20;1.00;;;;;;20886840;28;20404;-40
2023/05/31 21:26:29;;;;;;;9.25;3.85;;;14.00;1.00;;;;;;20884150;28;20397;-39
2023/05/31 21:36:30;;;;;;;9.82;3.15;;;13.80;1.00;;;;;;20882579;28;20040;-39
2023/05/31 21:46:31;;;;;;;10.05;3.85;;;13.70;1.00;;;;;;20894174;28;20040;-39
2023/05/31 21:56:32;;;;;;;11.23;4.00;;;13.60;1.00;;;;;;20895939;28;20041;-42
2023/05/31 22:06:33;;;;;;;7.28;3.40;;;13.60;1.00;;;;;;20896898;28;20059;-42
2023/05/31 22:16:34;;;;;;;7.35;3.25;;;13.50;1.00;;;;;;20885073;28;20412;-39
2023/05/31 22:26:35;;;;;;;8.02;3.97;;;13.30;1.00;;;;;;20911946;28;20043;-42
2023/05/31 22:36:36;;;;;;;8.27;3.47;;;13.20;1.00;;;;;;20889983;28;20044;-40
2023/05/31 22:46:37;;;;;;;9.63;3.38;;;13.10;1.00;;;;;;20883384;28;20044;-40
2023/05/31 22:56:39;;;;;;;7.70;3.65;;;13.00;1.00;;;;;;20884625;28;20410;-40
2023/05/31 23:06:40;;;;;;;8.02;3.95;;;12.80;1.00;;;;;;20890793;28;20043;-40
2023/05/31 23:16:43;;;;;;;8.60;4.00;;;12.70;1.00;;;;;;20885489;28;20037;-40
2023/05/31 23:26:45;;;;;;;10.68;4.07;;;12.70;1.00;;;;;;20879143;28;20041;-40
2023/05/31 23:36:46;;;;;;;8.70;4.20;;;12.60;1.00;;;;;;20875798;28;20045;-41
2023/05/31 23:46:47;;;;;;;11.55;4.43;;;12.60;1.00;;;;;;20871475;28;20040;-40
2023/05/31 23:56:49;;;;;;;6.60;3.53;;;12.60;1.00;;;;;;20873936;28;20040;-41
